createdAt,value
2016-09-17T00:00:27.350Z,0
2016-09-17T00:01:27.031Z,0
2016-09-17T00:02:27.649Z,0
2016-09-17T00:03:27.320Z,0
2016-09-17T00:04:27.026Z,0
2016-09-17T00:05:27.306Z,0
2016-09-17T00:06:27.935Z,0
2016-09-17T00:07:27.293Z,0
2016-09-17T00:08:27.287Z,0
2016-09-17T00:09:26.963Z,0
2016-09-17T00:10:27.584Z,0
2016-09-17T00:11:27.571Z,0
2016-09-17T00:12:27.249Z,0
2016-09-17T00:13:27.242Z,0
2016-09-17T00:14:27.233Z,0
2016-09-17T00:15:26.912Z,0
2016-09-17T00:16:26.904Z,0
2016-09-17T00:17:26.896Z,0
2016-09-17T00:18:27.200Z,0
2016-09-17T00:19:26.873Z,0
2016-09-17T00:20:26.871Z,0
2016-09-17T00:21:26.864Z,0
2016-09-17T00:22:26.868Z,0
2016-09-17T00:23:26.859Z,0
2016-09-17T00:24:27.149Z,0
2016-09-17T00:25:26.827Z,0
2016-09-17T00:26:26.819Z,0
2016-09-17T00:27:26.811Z,0
2016-09-17T00:28:26.802Z,0
2016-09-17T00:29:27.109Z,0
2016-09-17T00:30:26.984Z,0
2016-09-17T00:31:27.095Z,0
2016-09-17T00:32:26.776Z,0
2016-09-17T00:33:27.076Z,0
2016-09-17T00:34:26.763Z,0
2016-09-17T00:35:27.055Z,0
2016-09-17T00:36:27.360Z,0
2016-09-17T00:37:27.035Z,0
2016-09-17T00:38:27.042Z,0
2016-09-17T00:39:26.712Z,0
2016-09-17T00:40:26.701Z,0
2016-09-17T00:41:26.701Z,0
2016-09-17T00:42:27.004Z,0
2016-09-17T00:43:26.993Z,0
2016-09-17T00:44:26.661Z,0
2016-09-17T00:45:26.664Z,0
2016-09-17T00:46:26.658Z,0
2016-09-17T00:47:26.969Z,0
2016-09-17T00:48:26.641Z,0
2016-09-17T00:49:26.624Z,0
2016-09-17T00:50:27.562Z,0
2016-09-17T00:51:26.921Z,0
2016-09-17T00:52:26.603Z,0
2016-09-17T00:53:26.902Z,0
2016-09-17T00:54:26.582Z,0
2016-09-17T00:55:26.576Z,0
2016-09-17T00:56:26.885Z,0
2016-09-17T00:57:26.570Z,0
2016-09-17T00:58:26.546Z,0
2016-09-17T00:59:26.541Z,0
2016-09-17T01:00:26.530Z,0
2016-09-17T01:01:26.843Z,0
2016-09-17T01:02:27.178Z,0
2016-09-17T01:03:27.138Z,0
2016-09-17T01:04:26.837Z,0
2016-09-17T01:05:26.814Z,0
2016-09-17T01:06:26.799Z,0
2016-09-17T01:07:26.474Z,0
2016-09-17T01:08:26.468Z,0
2016-09-17T01:09:26.456Z,0
2016-09-17T01:10:26.762Z,0
2016-09-17T01:11:26.449Z,0
2016-09-17T01:12:26.429Z,0
2016-09-17T01:13:27.055Z,0
2016-09-17T01:14:26.410Z,0
2016-09-17T01:15:26.720Z,0
2016-09-17T01:16:26.723Z,0
2016-09-17T01:17:26.388Z,0
2016-09-17T01:18:27.024Z,0
2016-09-17T01:19:26.684Z,0
2016-09-17T01:20:26.678Z,0
2016-09-17T01:21:26.671Z,0
2016-09-17T01:22:26.363Z,0
2016-09-17T01:23:26.662Z,0
2016-09-17T01:24:26.642Z,0
2016-09-17T01:25:26.954Z,0
2016-09-17T01:26:26.621Z,0
2016-09-17T01:27:26.309Z,0
2016-09-17T01:28:26.296Z,0
2016-09-17T01:29:26.604Z,0
2016-09-17T01:30:26.282Z,0
2016-09-17T01:31:26.589Z,0
2016-09-17T01:32:26.578Z,0
2016-09-17T01:33:26.569Z,0
2016-09-17T01:34:26.561Z,0
2016-09-17T01:35:26.859Z,0
2016-09-17T01:36:26.230Z,0
2016-09-17T01:37:26.230Z,0
2016-09-17T01:38:26.543Z,0
2016-09-17T01:39:26.528Z,0
2016-09-17T01:40:26.513Z,0
2016-09-17T01:41:26.197Z,0
2016-09-17T01:42:26.491Z,0
2016-09-17T01:43:26.174Z,0
2016-09-17T01:44:26.171Z,0
2016-09-17T01:45:26.470Z,0
2016-09-17T01:46:26.155Z,0
2016-09-17T01:47:26.449Z,0
2016-09-17T01:48:26.144Z,0
2016-09-17T01:49:26.430Z,0
2016-09-17T01:50:26.433Z,0
2016-09-17T01:51:26.730Z,0
2016-09-17T01:52:26.103Z,0
2016-09-17T01:53:26.718Z,0
2016-09-17T01:54:26.085Z,0
2016-09-17T01:55:26.388Z,0
2016-09-17T01:56:26.063Z,0
2016-09-17T01:57:26.056Z,0
2016-09-17T01:58:26.044Z,0
2016-09-17T01:59:26.040Z,0
2016-09-17T02:00:26.030Z,0
2016-09-17T02:01:26.334Z,0
2016-09-17T02:02:26.019Z,0
2016-09-17T02:03:26.003Z,0
2016-09-17T02:04:26.313Z,0
2016-09-17T02:05:25.996Z,0
2016-09-17T02:06:26.320Z,0
2016-09-17T02:07:26.613Z,0
2016-09-17T02:08:25.960Z,0
2016-09-17T02:09:26.268Z,0
2016-09-17T02:10:25.958Z,0
2016-09-17T02:11:26.251Z,0
2016-09-17T02:12:26.242Z,0
2016-09-17T02:13:25.924Z,0
2016-09-17T02:14:26.231Z,0
2016-09-17T02:15:25.901Z,0
2016-09-17T02:16:25.897Z,0
2016-09-17T02:17:26.514Z,0
2016-09-17T02:18:25.882Z,0
2016-09-17T02:19:26.181Z,0
2016-09-17T02:20:25.887Z,0
2016-09-17T02:21:26.169Z,0
2016-09-17T02:22:25.842Z,0
2016-09-17T02:23:26.158Z,0
2016-09-17T02:24:25.829Z,0
2016-09-17T02:25:25.819Z,0
2016-09-17T02:26:26.440Z,0
2016-09-17T02:27:26.117Z,0
2016-09-17T02:28:25.797Z,0
2016-09-17T02:29:25.781Z,0
2016-09-17T02:30:26.187Z,0
2016-09-17T02:31:25.769Z,0
2016-09-17T02:32:25.766Z,0
2016-09-17T02:33:25.752Z,0
2016-09-17T02:34:26.060Z,0
2016-09-17T02:35:25.742Z,0
2016-09-17T02:36:26.040Z,0
2016-09-17T02:37:25.723Z,0
2016-09-17T02:38:25.745Z,0
2016-09-17T02:39:26.019Z,0
2016-09-17T02:40:26.013Z,0
2016-09-17T02:41:25.701Z,0
2016-09-17T02:42:26.303Z,0
2016-09-17T02:43:26.290Z,0
2016-09-17T02:44:25.975Z,0
2016-09-17T02:45:25.667Z,0
2016-09-17T02:46:25.646Z,0
2016-09-17T02:47:25.642Z,0
2016-09-17T02:48:26.249Z,0
2016-09-17T02:49:25.616Z,0
2016-09-17T02:50:25.917Z,0
2016-09-17T02:51:25.599Z,0
2016-09-17T02:52:25.588Z,0
2016-09-17T02:53:25.592Z,0
2016-09-17T02:54:26.209Z,0
2016-09-17T02:55:25.578Z,0
2016-09-17T02:56:26.211Z,0
2016-09-17T02:57:25.863Z,0
2016-09-17T02:58:25.544Z,0
2016-09-17T02:59:25.529Z,0
2016-09-17T03:00:25.525Z,0
2016-09-17T03:01:25.522Z,0
2016-09-17T03:02:25.819Z,0
2016-09-17T03:03:25.510Z,0
2016-09-17T03:04:25.812Z,0
2016-09-17T03:05:25.484Z,0
2016-09-17T03:06:26.100Z,0
2016-09-17T03:07:25.769Z,0
2016-09-17T03:08:26.392Z,0
2016-09-17T03:09:25.751Z,0
2016-09-17T03:10:25.756Z,0
2016-09-17T03:11:25.432Z,0
2016-09-17T03:12:25.733Z,0
2016-09-17T03:13:26.037Z,0
2016-09-17T03:14:25.710Z,0
2016-09-17T03:15:25.401Z,0
2016-09-17T03:16:25.691Z,0
2016-09-17T03:17:25.372Z,0
2016-09-17T03:18:25.372Z,0
2016-09-17T03:19:25.354Z,0
2016-09-17T03:20:25.352Z,0
2016-09-17T03:21:25.335Z,0
2016-09-17T03:22:25.648Z,0
2016-09-17T03:23:25.320Z,0
2016-09-17T03:24:25.308Z,0
2016-09-17T03:25:25.619Z,0
2016-09-17T03:26:25.609Z,0
2016-09-17T03:27:25.600Z,0
2016-09-17T03:28:25.617Z,0
2016-09-17T03:29:25.574Z,0
2016-09-17T03:30:25.593Z,0
2016-09-17T03:31:25.875Z,0
2016-09-17T03:32:25.551Z,0
2016-09-17T03:33:25.540Z,0
2016-09-17T03:34:25.539Z,0
2016-09-17T03:35:25.840Z,0
2016-09-17T03:36:25.830Z,0
2016-09-17T03:37:25.210Z,0
2016-09-17T03:38:25.180Z,0
2016-09-17T03:39:25.177Z,0
2016-09-17T03:40:25.479Z,0
2016-09-17T03:41:25.176Z,0
2016-09-17T03:42:25.768Z,0
2016-09-17T03:43:25.138Z,0
2016-09-17T03:44:25.754Z,0
2016-09-17T03:45:25.438Z,0
2016-09-17T03:46:25.430Z,0
2016-09-17T03:47:25.098Z,0
2016-09-17T03:48:25.413Z,0
2016-09-17T03:49:25.086Z,0
2016-09-17T03:50:25.083Z,0
2016-09-17T03:51:25.377Z,0
2016-09-17T03:52:25.365Z,0
2016-09-17T03:53:25.062Z,0
2016-09-17T03:54:25.033Z,0
2016-09-17T03:55:25.029Z,0
2016-09-17T03:56:25.331Z,0
2016-09-17T03:57:25.014Z,0
2016-09-17T03:58:25.001Z,0
2016-09-17T03:59:24.993Z,0
2016-09-17T04:00:24.981Z,0
2016-09-17T04:01:24.978Z,0
2016-09-17T04:02:24.964Z,0
2016-09-17T04:03:24.956Z,0
2016-09-17T04:04:25.571Z,0
2016-09-17T04:05:25.249Z,0
2016-09-17T04:06:24.938Z,0
2016-09-17T04:07:25.548Z,0
2016-09-17T04:08:25.229Z,0
2016-09-17T04:09:24.899Z,0
2016-09-17T04:10:25.513Z,0
2016-09-17T04:11:24.886Z,0
2016-09-17T04:12:25.191Z,0
2016-09-17T04:13:24.866Z,0
2016-09-17T04:14:24.864Z,0
2016-09-17T04:15:25.167Z,0
2016-09-17T04:16:24.839Z,0
2016-09-17T04:17:24.857Z,0
2016-09-17T04:18:24.816Z,0
2016-09-17T04:19:25.637Z,0
2016-09-17T04:20:24.794Z,0
2016-09-17T04:21:24.789Z,0
2016-09-17T04:22:25.096Z,0
2016-09-17T04:23:25.080Z,0
2016-09-17T04:24:24.758Z,0
2016-09-17T04:25:24.755Z,0
2016-09-17T04:26:24.790Z,0
2016-09-17T04:27:24.729Z,0
2016-09-17T04:28:24.725Z,0
2016-09-17T04:29:25.020Z,0
2016-09-17T04:30:24.718Z,0
2016-09-17T04:31:24.687Z,0
2016-09-17T04:32:24.684Z,0
2016-09-17T04:33:25.297Z,0
2016-09-17T04:34:24.977Z,0
2016-09-17T04:35:24.657Z,0
2016-09-17T04:36:24.726Z,0
2016-09-17T04:37:24.635Z,0
2016-09-17T04:38:24.626Z,0
2016-09-17T04:39:24.619Z,0
2016-09-17T04:40:24.925Z,0
2016-09-17T04:41:24.917Z,0
2016-09-17T04:42:24.902Z,0
2016-09-17T04:43:24.903Z,0
2016-09-17T04:44:24.938Z,4
2016-09-17T04:45:24.887Z,4
2016-09-17T04:46:24.549Z,4
2016-09-17T04:47:24.542Z,4
2016-09-17T04:48:24.537Z,4
2016-09-17T04:49:24.838Z,8
2016-09-17T04:50:24.518Z,4
2016-09-17T04:51:24.517Z,8
2016-09-17T04:52:24.809Z,8
2016-09-17T04:53:25.112Z,8
2016-09-17T04:54:24.843Z,12
2016-09-17T04:55:24.803Z,16
2016-09-17T04:56:24.460Z,16
2016-09-17T04:57:24.755Z,20
2016-09-17T04:58:24.441Z,20
2016-09-17T04:59:24.742Z,24
2016-09-17T05:00:24.737Z,28
2016-09-17T05:01:24.725Z,32
2016-09-17T05:02:24.716Z,32
2016-09-17T05:03:24.393Z,40
2016-09-17T05:04:24.395Z,44
2016-09-17T05:05:24.688Z,48
2016-09-17T05:06:24.682Z,56
2016-09-17T05:07:24.679Z,64
2016-09-17T05:08:24.975Z,68
2016-09-17T05:09:24.651Z,76
2016-09-17T05:10:24.636Z,88
2016-09-17T05:11:24.637Z,100
2016-09-17T05:12:24.308Z,108
2016-09-17T05:13:24.673Z,116
2016-09-17T05:14:24.601Z,116
2016-09-17T05:15:24.910Z,128
2016-09-17T05:16:24.271Z,136
2016-09-17T05:17:24.263Z,144
2016-09-17T05:18:24.934Z,156
2016-09-17T05:19:24.251Z,168
2016-09-17T05:20:24.290Z,180
2016-09-17T05:21:24.235Z,192
2016-09-17T05:22:24.546Z,208
2016-09-17T05:23:24.207Z,228
2016-09-17T05:24:24.217Z,248
2016-09-17T05:25:24.191Z,272
2016-09-17T05:26:24.500Z,296
2016-09-17T05:27:24.162Z,324
2016-09-17T05:28:24.474Z,344
2016-09-17T05:29:24.776Z,372
2016-09-17T05:30:24.146Z,392
2016-09-17T05:31:24.471Z,408
2016-09-17T05:32:24.124Z,424
2016-09-17T05:33:24.107Z,436
2016-09-17T05:34:24.422Z,452
2016-09-17T05:35:24.098Z,468
2016-09-17T05:36:25.094Z,480
2016-09-17T05:37:24.419Z,492
2016-09-17T05:38:24.399Z,508
2016-09-17T05:39:24.387Z,516
2016-09-17T05:40:24.413Z,520
2016-09-17T05:41:24.372Z,520
2016-09-17T05:42:24.668Z,516
2016-09-17T05:43:24.023Z,512
2016-09-17T05:44:24.634Z,516
2016-09-17T05:45:24.994Z,520
2016-09-17T05:46:24.955Z,524
2016-09-17T05:47:24.305Z,532
2016-09-17T05:48:24.617Z,540
2016-09-17T05:49:23.963Z,556
2016-09-17T05:50:23.950Z,576
2016-09-17T05:51:24.582Z,600
2016-09-17T05:52:24.251Z,632
2016-09-17T05:53:24.584Z,664
2016-09-17T05:54:24.230Z,704
2016-09-17T05:55:23.906Z,740
2016-09-17T05:56:23.900Z,772
2016-09-17T05:57:24.512Z,808
2016-09-17T05:58:23.883Z,860
2016-09-17T05:59:23.867Z,928
2016-09-17T06:00:23.861Z,984
2016-09-17T06:01:23.852Z,1028
2016-09-17T06:02:24.159Z,1068
2016-09-17T06:03:24.474Z,1100
2016-09-17T06:04:24.457Z,1136
2016-09-17T06:05:23.819Z,1168
2016-09-17T06:06:24.116Z,1204
2016-09-17T06:07:23.784Z,1252
2016-09-17T06:08:23.783Z,1316
2016-09-17T06:09:23.769Z,1376
2016-09-17T06:10:23.762Z,1428
2016-09-17T06:11:23.749Z,1488
2016-09-17T06:12:24.370Z,1560
2016-09-17T06:13:23.731Z,1636
2016-09-17T06:14:24.041Z,1704
2016-09-17T06:15:23.725Z,1780
2016-09-17T06:16:24.324Z,1856
2016-09-17T06:17:24.009Z,1936
2016-09-17T06:18:23.691Z,2000
2016-09-17T06:19:23.989Z,2060
2016-09-17T06:20:23.714Z,2104
2016-09-17T06:21:23.978Z,2160
2016-09-17T06:22:23.971Z,2232
2016-09-17T06:23:23.949Z,2300
2016-09-17T06:24:23.946Z,2352
2016-09-17T06:25:23.933Z,2392
2016-09-17T06:26:23.611Z,2428
2016-09-17T06:27:23.606Z,2432
2016-09-17T06:28:23.593Z,2424
2016-09-17T06:29:24.553Z,2436
2016-09-17T06:30:24.209Z,2464
2016-09-17T06:31:23.569Z,2484
2016-09-17T06:32:23.865Z,2476
2016-09-17T06:33:23.857Z,2464
2016-09-17T06:34:24.163Z,2480
2016-09-17T06:35:24.165Z,2532
2016-09-17T06:36:23.840Z,2600
2016-09-17T06:37:23.505Z,2712
2016-09-17T06:38:23.503Z,2816
2016-09-17T06:39:23.812Z,2896
2016-09-17T06:40:23.484Z,2956
2016-09-17T06:41:24.106Z,3032
2016-09-17T06:42:23.775Z,3060
2016-09-17T06:43:23.772Z,3044
2016-09-17T06:44:23.460Z,3056
2016-09-17T06:45:23.762Z,3112
2016-09-17T06:46:23.432Z,3172
2016-09-17T06:47:23.421Z,3232
2016-09-17T06:48:23.727Z,3288
2016-09-17T06:49:24.340Z,3320
2016-09-17T06:50:23.398Z,3332
2016-09-17T06:51:24.337Z,3328
2016-09-17T06:52:23.378Z,3356
2016-09-17T06:53:23.681Z,3404
2016-09-17T06:54:23.355Z,3468
2016-09-17T06:55:23.349Z,3556
2016-09-17T06:56:23.340Z,3632
2016-09-17T06:57:23.345Z,3668
2016-09-17T06:58:23.325Z,3664
2016-09-17T06:59:23.630Z,3660
2016-09-17T07:00:23.304Z,3696
2016-09-17T07:01:23.610Z,3760
2016-09-17T07:02:23.596Z,3836
2016-09-17T07:03:23.594Z,3912
2016-09-17T07:04:23.897Z,3960
2016-09-17T07:05:24.204Z,4004
2016-09-17T07:06:23.565Z,4024
2016-09-17T07:07:23.880Z,4056
2016-09-17T07:08:23.546Z,4116
2016-09-17T07:09:23.549Z,4176
2016-09-17T07:10:23.223Z,4240
2016-09-17T07:11:23.210Z,4328
2016-09-17T07:12:24.143Z,4424
2016-09-17T07:13:23.198Z,4508
2016-09-17T07:14:23.812Z,4564
2016-09-17T07:15:23.178Z,4592
2016-09-17T07:16:23.485Z,4620
2016-09-17T07:17:23.490Z,4656
2016-09-17T07:18:23.155Z,4676
2016-09-17T07:19:23.147Z,4696
2016-09-17T07:20:23.146Z,4724
2016-09-17T07:21:23.127Z,4736
2016-09-17T07:22:23.433Z,4800
2016-09-17T07:23:23.431Z,4880
2016-09-17T07:24:23.105Z,4952
2016-09-17T07:25:23.092Z,5040
2016-09-17T07:26:23.094Z,5116
2016-09-17T07:27:23.389Z,5144
2016-09-17T07:28:23.388Z,5156
2016-09-17T07:29:23.057Z,5144
2016-09-17T07:30:23.074Z,5064
2016-09-17T07:31:23.356Z,4992
2016-09-17T07:32:23.039Z,4932
2016-09-17T07:33:23.055Z,4908
2016-09-17T07:34:23.023Z,4920
2016-09-17T07:35:23.329Z,4968
2016-09-17T07:36:23.641Z,5032
2016-09-17T07:37:23.005Z,5104
2016-09-17T07:38:23.000Z,5144
2016-09-17T07:39:22.992Z,5132
2016-09-17T07:40:23.319Z,5088
2016-09-17T07:41:22.968Z,5000
2016-09-17T07:42:23.281Z,4892
2016-09-17T07:43:22.959Z,4792
2016-09-17T07:44:23.255Z,4700
2016-09-17T07:45:22.943Z,4572
2016-09-17T07:46:22.936Z,4484
2016-09-17T07:47:22.923Z,4440
2016-09-17T07:48:23.224Z,4400
2016-09-17T07:49:23.247Z,4384
2016-09-17T07:50:22.901Z,4372
2016-09-17T07:51:23.209Z,4344
2016-09-17T07:52:23.732Z,4376
2016-09-17T07:53:23.507Z,4420
2016-09-17T07:54:22.866Z,4492
2016-09-17T07:55:22.861Z,4632
2016-09-17T07:56:23.204Z,4884
2016-09-17T07:57:23.485Z,5060
2016-09-17T07:58:23.688Z,4996
2016-09-17T07:59:22.829Z,4976
2016-09-17T08:00:23.780Z,5028
2016-09-17T08:01:22.824Z,5140
2016-09-17T08:02:23.113Z,5328
2016-09-17T08:03:23.736Z,5612
2016-09-17T08:04:23.417Z,5864
2016-09-17T08:05:23.748Z,6000
2016-09-17T08:07:23.103Z,5924
2016-09-17T08:08:22.813Z,5796
2016-09-17T08:09:22.758Z,5580
2016-09-17T08:10:23.381Z,5304
2016-09-17T08:11:22.756Z,5140
2016-09-17T08:12:23.067Z,4840
2016-09-17T08:13:23.042Z,4600
2016-09-17T08:14:22.717Z,4496
2016-09-17T08:15:23.025Z,4432
2016-09-17T08:16:23.015Z,4388
2016-09-17T08:17:23.018Z,4284
2016-09-17T08:18:23.006Z,4224
2016-09-17T08:19:22.683Z,4196
2016-09-17T08:20:22.885Z,4076
2016-09-17T08:21:23.377Z,3904
2016-09-17T08:22:23.293Z,3708
2016-09-17T08:23:22.979Z,3512
2016-09-17T08:24:22.959Z,3424
2016-09-17T08:25:22.956Z,3440
2016-09-17T08:26:22.944Z,3520
2016-09-17T08:27:22.936Z,3668
2016-09-17T08:28:22.928Z,3848
2016-09-17T08:29:22.916Z,4048
2016-09-17T08:30:22.615Z,4252
2016-09-17T08:31:23.112Z,4504
2016-09-17T08:32:22.588Z,4740
2016-09-17T08:33:22.901Z,5040
2016-09-17T08:34:22.897Z,5344
2016-09-17T08:35:23.197Z,5632
2016-09-17T08:36:22.881Z,5988
2016-09-17T08:37:22.884Z,6368
2016-09-17T08:38:22.545Z,6736
2016-09-17T08:39:22.531Z,7060
2016-09-17T08:40:22.522Z,7184
2016-09-17T08:41:22.862Z,7140
2016-09-17T08:42:23.150Z,7064
2016-09-17T08:43:22.869Z,6936
2016-09-17T08:44:22.818Z,6784
2016-09-17T08:45:22.490Z,6720
2016-09-17T08:46:22.793Z,6796
2016-09-17T08:47:22.479Z,6920
2016-09-17T08:48:22.467Z,7068
2016-09-17T08:49:22.465Z,7176
2016-09-17T08:50:22.472Z,7228
2016-09-17T08:51:22.445Z,7340
2016-09-17T08:52:22.460Z,7484
2016-09-17T08:53:23.375Z,7588
2016-09-17T08:54:22.426Z,7772
2016-09-17T08:55:22.735Z,8236
2016-09-17T08:56:22.759Z,8896
2016-09-17T08:57:22.737Z,9540
2016-09-17T08:58:22.405Z,10040
2016-09-17T08:59:22.709Z,10208
2016-09-17T09:00:22.393Z,9988
2016-09-17T09:01:22.710Z,9572
2016-09-17T09:02:22.740Z,9144
2016-09-17T09:03:22.688Z,8824
2016-09-17T09:04:23.028Z,8696
2016-09-17T09:05:22.359Z,8744
2016-09-17T09:06:22.666Z,8804
2016-09-17T09:07:22.363Z,8744
2016-09-17T09:08:22.671Z,8444
2016-09-17T09:09:22.336Z,7992
2016-09-17T09:10:22.640Z,7524
2016-09-17T09:11:22.697Z,7148
2016-09-17T09:12:22.319Z,6876
2016-09-17T09:13:22.624Z,6692
2016-09-17T09:14:22.613Z,6620
2016-09-17T09:15:22.607Z,6708
2016-09-17T09:16:22.301Z,6964
2016-09-17T09:17:22.312Z,7356
2016-09-17T09:18:23.121Z,7696
2016-09-17T09:19:22.269Z,7808
2016-09-17T09:20:22.255Z,7656
2016-09-17T09:21:23.386Z,7212
2016-09-17T09:22:23.257Z,6516
2016-09-17T09:23:22.913Z,5928
2016-09-17T09:24:22.251Z,5648
2016-09-17T09:25:22.240Z,5644
2016-09-17T09:26:22.575Z,5856
2016-09-17T09:27:22.865Z,6236
2016-09-17T09:28:22.862Z,6828
2016-09-17T09:29:22.528Z,7608
2016-09-17T09:30:22.208Z,8364
2016-09-17T09:31:22.869Z,9056
2016-09-17T09:32:22.506Z,9660
2016-09-17T09:33:22.501Z,10228
2016-09-17T09:34:22.187Z,10848
2016-09-17T09:35:22.175Z,11484
2016-09-17T09:36:22.494Z,11736
2016-09-17T09:37:22.182Z,11748
2016-09-17T09:38:22.172Z,11624
2016-09-17T09:39:22.464Z,11692
2016-09-17T09:40:22.145Z,11836
2016-09-17T09:41:22.491Z,11912
2016-09-17T09:42:22.134Z,12324
2016-09-17T09:43:22.452Z,13072
2016-09-17T09:44:22.126Z,13836
2016-09-17T09:45:22.115Z,13836
2016-09-17T09:46:22.450Z,12532
2016-09-17T09:47:22.433Z,11512
2016-09-17T09:48:22.418Z,10892
2016-09-17T09:49:22.101Z,10564
2016-09-17T09:50:22.098Z,9968
2016-09-17T09:51:22.098Z,9644
2016-09-17T09:52:22.726Z,9816
2016-09-17T09:53:22.075Z,10148
2016-09-17T09:54:22.090Z,10352
2016-09-17T09:55:22.385Z,9920
2016-09-17T09:56:22.064Z,9356
2016-09-17T09:57:22.051Z,8828
2016-09-17T09:58:22.045Z,8088
2016-09-17T09:59:22.047Z,7356
2016-09-17T10:00:22.352Z,6812
2016-09-17T10:01:22.355Z,6680
2016-09-17T10:02:22.334Z,6732
2016-09-17T10:03:22.018Z,6852
2016-09-17T10:04:22.006Z,6876
2016-09-17T10:05:22.328Z,6768
2016-09-17T10:06:22.026Z,6780
2016-09-17T10:07:22.634Z,7024
2016-09-17T10:08:21.990Z,7344
2016-09-17T10:09:22.292Z,7156
2016-09-17T10:10:21.983Z,6824
2016-09-17T10:11:22.286Z,6552
2016-09-17T10:12:21.963Z,6544
2016-09-17T10:13:21.963Z,6824
2016-09-17T10:14:21.972Z,7372
2016-09-17T10:15:22.263Z,7952
2016-09-17T10:16:21.938Z,7976
2016-09-17T10:17:22.261Z,7432
2016-09-17T10:18:21.934Z,6836
2016-09-17T10:19:22.239Z,6348
2016-09-17T10:20:21.922Z,5988
2016-09-17T10:21:22.253Z,5760
2016-09-17T10:22:22.542Z,5672
2016-09-17T10:23:21.904Z,5652
2016-09-17T10:24:21.911Z,5648
2016-09-17T10:25:22.204Z,5676
2016-09-17T10:26:22.201Z,5652
2016-09-17T10:27:22.832Z,5556
2016-09-17T10:28:22.521Z,5468
2016-09-17T10:29:21.867Z,5536
2016-09-17T10:30:22.180Z,5772
2016-09-17T10:31:22.683Z,6048
2016-09-17T10:32:21.856Z,6308
2016-09-17T10:33:21.848Z,6396
2016-09-17T10:34:21.834Z,6372
2016-09-17T10:35:22.148Z,6240
2016-09-17T10:36:22.141Z,6044
2016-09-17T10:37:22.132Z,5848
2016-09-17T10:38:22.129Z,5764
2016-09-17T10:39:21.810Z,5864
2016-09-17T10:40:22.121Z,6132
2016-09-17T10:41:21.797Z,6472
2016-09-17T10:42:21.787Z,6840
2016-09-17T10:43:21.787Z,7240
2016-09-17T10:44:21.778Z,7556
2016-09-17T10:45:22.097Z,7692
2016-09-17T10:46:21.773Z,7700
2016-09-17T10:47:22.074Z,7636
2016-09-17T10:48:22.068Z,7548
2016-09-17T10:49:21.743Z,7408
2016-09-17T10:50:22.072Z,7268
2016-09-17T10:51:22.043Z,7192
2016-09-17T10:52:21.737Z,7248
2016-09-17T10:53:21.722Z,7384
2016-09-17T10:54:21.725Z,7568
2016-09-17T10:55:21.711Z,7672
2016-09-17T10:56:21.707Z,7720
2016-09-17T10:57:21.708Z,7836
2016-09-17T10:58:22.009Z,8024
2016-09-17T10:59:21.717Z,8136
2016-09-17T11:00:22.001Z,8292
2016-09-17T11:01:21.992Z,8360
2016-09-17T11:02:21.670Z,8392
2016-09-17T11:03:21.983Z,8388
2016-09-17T11:04:21.983Z,8180
2016-09-17T11:05:21.663Z,7924
2016-09-17T11:06:21.663Z,7680
2016-09-17T11:07:21.960Z,7596
2016-09-17T11:08:21.636Z,7628
2016-09-17T11:09:22.257Z,7672
2016-09-17T11:10:21.935Z,7784
2016-09-17T11:11:21.625Z,8144
2016-09-17T11:12:21.639Z,8648
2016-09-17T11:13:21.612Z,8988
2016-09-17T11:14:21.611Z,9308
2016-09-17T11:15:21.917Z,9572
2016-09-17T11:16:21.600Z,9656
2016-09-17T11:17:21.585Z,10028
2016-09-17T11:18:21.903Z,10544
2016-09-17T11:19:21.599Z,11012
2016-09-17T11:20:21.895Z,10644
2016-09-17T11:21:21.558Z,10380
2016-09-17T11:22:21.557Z,10448
2016-09-17T11:23:21.556Z,10492
2016-09-17T11:24:22.174Z,9992
2016-09-17T11:25:21.541Z,8868
2016-09-17T11:26:22.169Z,7584
2016-09-17T11:27:21.549Z,6808
2016-09-17T11:28:21.530Z,6392
2016-09-17T11:29:21.526Z,6076
2016-09-17T11:30:22.146Z,5868
2016-09-17T11:31:21.821Z,5696
2016-09-17T11:32:21.503Z,5352
2016-09-17T11:33:21.506Z,5088
2016-09-17T11:34:21.489Z,5044
2016-09-17T11:35:21.488Z,5180
2016-09-17T11:36:21.797Z,5428
2016-09-17T11:37:22.105Z,5708
2016-09-17T11:38:21.783Z,5968
2016-09-17T11:39:22.101Z,6092
2016-09-17T11:40:21.775Z,6076
2016-09-17T11:41:21.481Z,6152
2016-09-17T11:42:21.769Z,6356
2016-09-17T11:43:21.446Z,6580
2016-09-17T11:44:21.436Z,6780
2016-09-17T11:45:21.742Z,6880
2016-09-17T11:46:21.742Z,6952
2016-09-17T11:47:21.432Z,7096
2016-09-17T11:48:21.438Z,7368
2016-09-17T11:49:21.425Z,7788
2016-09-17T11:50:21.721Z,8284
2016-09-17T11:51:21.401Z,8684
2016-09-17T11:52:21.714Z,8760
2016-09-17T11:53:22.011Z,8724
2016-09-17T11:54:21.384Z,8640
2016-09-17T11:55:22.010Z,8468
2016-09-17T11:56:21.372Z,8016
2016-09-17T11:57:21.682Z,7536
2016-09-17T11:58:21.995Z,7236
2016-09-17T11:59:21.353Z,7192
2016-09-17T12:00:21.671Z,7300
2016-09-17T12:01:21.365Z,7420
2016-09-17T12:02:21.659Z,7480
2016-09-17T12:03:21.648Z,7532
2016-09-17T12:04:21.963Z,7632
2016-09-17T12:05:21.327Z,7580
2016-09-17T12:06:21.317Z,7332
2016-09-17T12:07:21.315Z,6948
2016-09-17T12:08:21.351Z,6568
2016-09-17T12:09:21.614Z,6308
2016-09-17T12:10:21.299Z,6116
2016-09-17T12:11:21.611Z,5952
2016-09-17T12:12:21.595Z,5760
2016-09-17T12:13:21.604Z,5524
2016-09-17T12:14:21.593Z,5280
2016-09-17T12:15:21.280Z,5000
2016-09-17T12:16:21.268Z,4756
2016-09-17T12:17:21.572Z,4664
2016-09-17T12:18:21.561Z,4708
2016-09-17T12:19:21.576Z,4684
2016-09-17T12:20:21.242Z,4580
2016-09-17T12:21:21.560Z,4444
2016-09-17T12:22:21.227Z,4308
2016-09-17T12:23:21.540Z,4164
2016-09-17T12:24:21.532Z,4056
2016-09-17T12:25:21.863Z,3972
2016-09-17T12:26:21.210Z,3904
2016-09-17T12:27:21.528Z,3848
2016-09-17T12:28:21.511Z,3836
2016-09-17T12:29:21.503Z,3868
2016-09-17T12:30:21.186Z,3876
2016-09-17T12:31:21.396Z,3832
2016-09-17T12:32:21.486Z,3760
2016-09-17T12:33:21.478Z,3712
2016-09-17T12:34:21.163Z,3720
2016-09-17T12:35:21.468Z,3764
2016-09-17T12:36:21.154Z,3820
2016-09-17T12:37:21.137Z,3920
2016-09-17T12:38:21.141Z,4072
2016-09-17T12:39:21.760Z,4292
2016-09-17T12:40:21.444Z,4588
2016-09-17T12:41:21.437Z,4872
2016-09-17T12:42:21.122Z,5032
2016-09-17T12:43:21.423Z,5028
2016-09-17T12:44:21.729Z,4912
2016-09-17T12:45:21.112Z,4756
2016-09-17T12:46:21.096Z,4620
2016-09-17T12:47:21.085Z,4500
2016-09-17T12:48:21.386Z,4376
2016-09-17T12:49:21.076Z,4260
2016-09-17T12:50:21.378Z,4152
2016-09-17T12:51:21.373Z,4052
2016-09-17T12:52:21.052Z,3984
2016-09-17T12:53:21.054Z,3948
2016-09-17T12:54:21.049Z,3964
2016-09-17T12:55:21.364Z,4024
2016-09-17T12:56:21.663Z,4088
2016-09-17T12:57:21.647Z,4144
2016-09-17T12:58:21.346Z,4148
2016-09-17T12:59:21.024Z,4132
2016-09-17T13:00:21.338Z,4132
2016-09-17T13:01:21.629Z,4168
2016-09-17T13:02:20.995Z,4252
2016-09-17T13:03:21.299Z,4340
2016-09-17T13:04:21.292Z,4412
2016-09-17T13:05:21.292Z,4460
2016-09-17T13:06:20.962Z,4412
2016-09-17T13:07:21.590Z,4280
2016-09-17T13:08:20.953Z,4148
2016-09-17T13:09:20.954Z,4040
2016-09-17T13:10:20.937Z,3988
2016-09-17T13:11:20.943Z,4044
2016-09-17T13:12:20.946Z,4156
2016-09-17T13:13:20.929Z,4276
2016-09-17T13:14:20.918Z,4448
2016-09-17T13:15:20.911Z,4636
2016-09-17T13:16:20.908Z,4800
2016-09-17T13:17:20.917Z,4972
2016-09-17T13:18:21.067Z,5052
2016-09-17T13:19:21.207Z,5096
2016-09-17T13:20:21.820Z,5096
2016-09-17T13:21:21.513Z,5044
2016-09-17T13:22:20.879Z,4932
2016-09-17T13:23:20.875Z,4760
2016-09-17T13:24:20.909Z,4544
2016-09-17T13:25:20.858Z,4320
2016-09-17T13:26:20.848Z,4168
2016-09-17T13:27:21.157Z,4088
2016-09-17T13:28:21.629Z,4052
2016-09-17T13:29:21.155Z,4032
2016-09-17T13:30:20.830Z,4000
2016-09-17T13:31:21.131Z,3944
2016-09-17T13:32:21.133Z,3872
2016-09-17T13:33:21.117Z,3788
2016-09-17T13:34:21.113Z,3684
2016-09-17T13:35:21.102Z,3596
2016-09-17T13:36:20.784Z,3536
2016-09-17T13:37:21.096Z,3496
2016-09-17T13:38:21.084Z,3492
2016-09-17T13:39:21.081Z,3536
2016-09-17T13:40:21.077Z,3636
2016-09-17T13:41:20.758Z,3772
2016-09-17T13:42:20.744Z,3836
2016-09-17T13:43:21.058Z,3716
2016-09-17T13:44:21.368Z,3616
2016-09-17T13:45:20.734Z,3660
2016-09-17T13:46:20.721Z,3680
2016-09-17T13:47:20.722Z,3580
2016-09-17T13:48:20.710Z,3456
2016-09-17T13:49:20.704Z,3400
2016-09-17T13:50:21.030Z,3364